Almagrundet, Sweden

10:54 PM CEST on June 02, 2015 (GMT +0200)
Ingarö | | Change Station
CLOSE
Current Station
Personal Weather Station
Location: Stockholms Län, STOCKHOLMS LäN
Elevation: 115 ft
Nearby Weather Stations

Elev 115 ft 59.25 °N, 18.54 °E | Updated 9 minutes ago

Light Drizzle
Light Drizzle
50.5 °F
Feels Like 50.5 °F
N
3.8
Wind Variable Wind from SW
Gusts 7.6 mph

Today
High -- | Low -- °F
--% Chance of Precip.
Yesterday
High -- | Low -- °F
Precip. -- in
3:40 AM 9:43 PM
Full, 100% visible
Pressure 29.50 in
Visibility 6.2 miles
Clouds Overcast 5700 ft
Dew Point 48 °F
Humidity 90%
Rainfall 0.02 in
Snow Depth Not available.
UV 0 out of 12
Pollen Not available.
Air Quality Not available.
Flu Activity Not available.
METAR ESSB 022020Z AUTO 17009KT 9999 -DZ OVC057/// 12/09 Q0999 REDZ

More Conditions Fewer Conditions

Pressure 29.50 in
Visibility 6.2 miles
Clouds Overcast 5700 ft
Dew Point 48 °F
Humidity 90%
Rainfall 0.02 in
Snow Depth Not available.
UV 0 out of 12
Pollen Not available.
Air Quality Not available.
Flu Activity Not available.
METAR ESSB 022020Z AUTO 17009KT 9999 -DZ OVC057/// 12/09 Q0999 REDZ

More Conditions Fewer Conditions

10-Day Weather Forecast

×

Almanac

Astronomy

Jun. 02, 2015 Rise Set
Actual Time
Civil Twilight
Nautical Twilight
Astronomical Twilight
Moon
Length of Visible Light
Length of Day
Tomorrow will be .
, % of the Moon is Illuminated

Today's Extremes

Country Highs Country Lows

Community

WunderPhotos

Upload Photos

1,826,022 photos uploaded!

WunderBlogs® & News

Nearby

Air Quality

  Air Quality AQ Index Pollutant
Not available.

Snow Depth

Station Depth Elevation

Earthquake Activity

City Distance Mag. Time & Date
Minimum magnitude displayed is 2.5.

Coastal Water Temperatures

Place Temperature

Stations

Nearby Weather Stations

Station Location Temp. Windchill Dew Point Humidity Wind Precip. Elev Updated Type